METAR Data
IDs: Format: Raw Decoded Include TAF

Data at: 1811 UTC 21 Sep 2018

KBWD 211755Z AUTO 16006KT 5SM BKN027 24/23 A2997 RMK AO2 PWINO PNO
KBWD 211735Z AUTO 16007KT 4SM BKN029 24/23 A2997 RMK AO2 PWINO PNO
KBWD 211715Z AUTO 17006KT 5SM FEW020 FEW031 24/23 A2998 RMK AO2 PWINO PNO
KBWD 211655Z AUTO 17006KT 5SM FEW022 SCT080 24/23 A2998 RMK AO2 PWINO PNO
KBWD 211635Z AUTO 17009G15KT 7SM FEW020 OVC080 24/23 A2999 RMK AO2 PWINO PNO
KBWD 211615Z AUTO 17009KT 10SM FEW020 OVC080 25/22 A2998 RMK AO2 PWINO PNO
KBWD 211555Z AUTO 16008G17KT 10SM SCT020 OVC080 25/22 A2998 RMK AO2 PWINO PNO
KBWD 211535Z AUTO 16008G14KT 10SM BKN020 OVC026 25/22 A2998 RMK AO2 PWINO PNO
KBWD 211515Z AUTO 16008KT 9SM BKN018 OVC025 25/22 A2997 RMK AO2 PWINO PNO
KBWD 211455Z AUTO 15010G14KT 10SM OVC018 25/23 A2996 RMK AO2 PWINO PNO
KBWD 211435Z AUTO 16010G15KT 10SM OVC019 25/23 A2996 RMK AO2 PWINO PNO
KBWD 211415Z AUTO 14009G15KT 10SM OVC019 24/23 A2995 RMK AO2 PWINO PNO
KBWD 211355Z AUTO 15009G17KT 10SM BKN019 24/23 A2995 RMK AO2 PWINO PNO
KBWD 211335Z AUTO 15010KT 10SM FEW010 OVC017 24/23 A2995 RMK AO2 PWINO PNO
KBWD 211315Z AUTO 15008G15KT 10SM BKN017 BKN022 BKN120 24/23 A2994 RMK AO2 PWINO PNO
KBWD 211255Z AUTO 15010KT 10SM SCT015 SCT028 BKN120 24/23 A2994 RMK AO2 PWINO PNO
KBWD 211235Z AUTO 14008KT 10SM SCT017 OVC028 24/23 A2993 RMK AO2 PWINO PNO
KBWD 211215Z AUTO 14007G15KT 10SM SCT011 BKN016 OVC028 24/23 A2993 RMK AO2 PWINO PNO
KBWD 211155Z AUTO 14008KT 10SM BKN013 OVC023 24/23 A2992 RMK AO2 PWINO PNO
KBWD 211135Z AUTO 13008G15KT 10SM BKN011 BKN023 24/23 A2992 RMK AO2 PWINO PNO
KBWD 211115Z AUTO 14009KT 10SM OVC011 24/23 A2991 RMK AO2 PWINO PNO
KBWD 211055Z AUTO 14008KT 10SM BKN013 OVC100 24/23 A2992 RMK AO2 PWINO PNO
KBWD 211035Z AUTO 14009KT 10SM SCT011 BKN037 OVC100 24/23 A2992 RMK AO2 PWINO PNO
KBWD 211015Z AUTO 14010G15KT 10SM SCT011 OVC037 24/23 A2992 RMK AO2 PWINO PNO
KBWD 210955Z AUTO 14009KT 10SM SCT011 BKN035 OVC100 24/23 A2991 RMK AO2 PWINO PNO
KBWD 210935Z AUTO 14009G14KT 10SM BKN011 OVC029 24/23 A2992 RMK AO2 PWINO PNO
KBWD 210915Z AUTO 15009G14KT 10SM OVC011 23/23 A2992 RMK AO2 PWINO PNO
KBWD 210855Z AUTO 13008KT 10SM BKN011 OVC026 23/23 A2991 RMK AO2 PWINO PNO
KBWD 210835Z AUTO 14008KT 10SM BKN013 OVC026 23/23 A2992 RMK AO2 PWINO PNO
KBWD 210815Z AUTO 14006KT 10SM OVC013 23/23 A2993 RMK AO2 PWINO PNO
KBWD 210755Z AUTO 14007KT 10SM BKN013 BKN029 23/23 A2993 RMK AO2 PWINO PNO
KBWD 210735Z AUTO 15009G14KT 9SM SCT013 BKN029 23/23 A2993 RMK AO2 PWINO PNO
KBWD 210715Z AUTO 14008KT 10SM BKN011 23/23 A2993 RMK AO2 PWINO PNO
KBWD 210655Z AUTO 15008KT 10SM OVC009 23/23 A2994 RMK AO2 PWINO PNO
KBWD 210635Z AUTO 14007KT 10SM OVC007 23/23 A2994 RMK AO2 PWINO PNO
KBWD 210615Z AUTO 16007KT 10SM OVC007 23/22 A2995 RMK AO2 PWINO PNO
KBWD 210555Z AUTO 15005KT 10SM OVC007 23/22 A2995 RMK AO2 PWINO PNO
KBWD 210535Z AUTO 15009KT 10SM OVC007 23/22 A2996 RMK AO2 PWINO PNO
KBWD 210515Z AUTO 15009KT 10SM OVC009 23/22 A2996 RMK AO2 PWINO PNO
KBWD 210455Z AUTO 16009G17KT 10SM OVC009 23/22 A2996 RMK AO2 PWINO PNO
KBWD 210435Z AUTO 16008G19KT 10SM OVC009 23/22 A2996 RMK AO2 PWINO PNO
KBWD 210415Z AUTO 15012G16KT 10SM OVC009 23/22 A2997 RMK AO2 PWINO PNO
KBWD 210355Z AUTO 15011G15KT 10SM OVC009 23/22 A2996 RMK AO2 PWINO PNO
KBWD 210335Z AUTO 15008G14KT 10SM BKN011 OVC047 22/22 A2996 RMK AO2 PWINO PNO
KBWD 210315Z AUTO 15009G16KT 10SM SCT011 BKN049 OVC060 22/21 A2996 RMK AO2 PWINO PNO
KBWD 210255Z AUTO 16011G18KT 10SM SCT011 SCT045 OVC060 23/21 A2996 RMK AO2 PWINO PNO
KBWD 210235Z AUTO 14012G20KT 10SM SCT011 BKN049 OVC060 23/22 A2995 RMK AO2 PWINO PNO
KBWD 210215Z AUTO 13013G17KT 10SM BKN013 BKN049 OVC060 23/22 A2994 RMK AO2 PWINO PNO
KBWD 210155Z AUTO 14011G16KT 10SM FEW016 OVC049 23/21 A2993 RMK AO2 PWINO PNO
KBWD 210135Z AUTO 14008KT 10SM OVC049 23/21 A2992 RMK AO2 PWINO PNO
KBWD 210115Z AUTO 14008G14KT 10SM SCT044 BKN065 OVC080 23/21 A2991 RMK AO2 PWINO PNO
KBWD 210055Z AUTO 14010G16KT 10SM SCT065 OVC080 23/20 A2991 RMK AO2 PWINO PNO
KBWD 210035Z AUTO 15012G18KT 10SM SCT050 BKN065 OVC085 23/20 A2991 RMK AO2 PWINO PNO
KBWD 210015Z AUTO 15012G16KT 10SM FEW045 SCT055 BKN065 23/20 A2990 RMK AO2 PWINO PNO
KBWD 202355Z AUTO 14013G19KT 10SM FEW060 SCT080 OVC085 23/20 A2990 RMK AO2 PWINO PNO
KBWD 202335Z AUTO 14015G20KT 10SM FEW060 BKN080 BKN110 24/20 A2989 RMK AO2 PWINO PNO
KBWD 202315Z AUTO 13015G23KT 10SM FEW060 SCT110 24/20 A2989 RMK AO2 PWINO PNO
KBWD 202255Z AUTO 13014G22KT 10SM FEW060 SCT090 BKN120 24/21 A2989 RMK AO2 PWINO PNO
KBWD 202235Z AUTO 13015G25KT 10SM BKN090 BKN110 24/21 A2989 RMK AO2 PWINO PNO
KBWD 202215Z AUTO 13013G19KT 10SM FEW070 FEW080 OVC100 24/21 A2991 RMK AO2 PWINO PNO
KBWD 202155Z AUTO 12013KT 10SM FEW028 SCT055 BKN080 24/21 A2990 RMK AO2 PWINO PNO
KBWD 202135Z AUTO 12013G27KT 10SM SCT026 SCT045 BKN060 25/22 A2991 RMK AO2 PWINO PNO
KBWD 202115Z AUTO 11005KT 1 1/2SM SCT039 BKN047 BKN060 24/23 A2990 RMK AO2 PWINO PNO
KBWD 202055Z AUTO 11008G19KT 1/2SM BKN040 BKN065 OVC100 25/22 A2990 RMK AO2 PWINO PNO
KBWD 202035Z AUTO 12011KT 10SM SCT038 BKN047 OVC110 27/20 A2990 RMK AO2 PWINO PNO
KBWD 202015Z AUTO 15009G16KT 130V190 10SM SCT039 BKN047 30/21 A2990 RMK AO2 PWINO PNO
KBWD 201955Z AUTO 13007KT 10SM BKN036 30/21 A2991 RMK AO2 PWINO PNO
KBWD 201935Z AUTO 18010G16KT 10SM FEW033 30/22 A2992 RMK AO2 PWINO PNO
KBWD 201915Z AUTO 18008KT 10SM CLR 29/21 A2993 RMK AO2 PWINO PNO
KBWD 201855Z AUTO 18008KT 10SM FEW042 SCT048 28/20 A2995 RMK AO2 PWINO PNO
KBWD 201835Z AUTO 17011G21KT 10SM BKN042 BKN048 30/20 A2995 RMK AO2 PWINO PNO
KBWD 201815Z AUTO 16010KT 10SM SCT042 30/20 A2995 RMK AO2 PWINO PNO
KBWD 201755Z AUTO 17011G15KT 10SM FEW036 SCT055 SCT080 30/21 A2996 RMK AO2 PWINO PNO
KBWD 201735Z AUTO 17011G15KT 10SM SCT036 SCT048 SCT055 29/20 A2997 RMK AO2 PWINO PNO
KBWD 201715Z AUTO 17010G16KT 10SM FEW038 29/21 A2998 RMK AO2 PWINO PNO
KBWD 201655Z AUTO 16011G16KT 10SM SCT032 29/21 A2998 RMK AO2 PWINO PNO
KBWD 201635Z AUTO 20013KT 10SM SCT030 BKN035 29/22 A2999 RMK AO2 PWINO PNO
KBWD 201615Z AUTO 19009KT 10SM CLR 27/21 A2999 RMK AO2 PWINO PNO
KBWD 201555Z AUTO 17006KT 10SM CLR 26/22 A3000 RMK AO2 PWINO PNO
KBWD 201535Z AUTO 17010G15KT 10SM FEW021 27/22 A2999 RMK AO2 PWINO PNO
KBWD 201515Z AUTO 16009KT 10SM FEW019 25/22 A2999 RMK AO2 PWINO PNO
KBWD 201455Z AUTO 15005KT 10SM CLR 25/23 A2999 RMK AO2 PWINO PNO
KBWD 201435Z AUTO 15005KT 10SM CLR 24/22 A2999 RMK AO2 PWINO PNO
KBWD 201415Z AUTO 18004KT 10SM CLR 23/23 A2999 RMK AO2 PWINO PNO
KBWD 201355Z AUTO 16005KT 10SM CLR 23/22 A2998 RMK AO2 PWINO PNO
KBWD 201335Z AUTO 16004KT 10SM CLR 23/22 A2998 RMK AO2 PWINO PNO
KBWD 201315Z AUTO 16004KT 10SM CLR 22/22 A2997 RMK AO2 PWINO PNO
KBWD 201255Z AUTO 15004KT 10SM CLR 22/22 A2997 RMK AO2 PWINO PNO
KBWD 201235Z AUTO 16003KT 10SM CLR 22/22 A2996 RMK AO2 PWINO PNO
KBWD 201215Z AUTO 17004KT 10SM CLR 22/22 A2996 RMK AO2 PWINO PNO
KBWD 201155Z AUTO 16003KT 10SM CLR 22/22 A2995 RMK AO2 PWINO PNO
KBWD 201135Z AUTO 14005KT 10SM CLR 22/22 A2995 RMK AO2 PWINO PNO
KBWD 201115Z AUTO 14004KT 10SM CLR 21/21 A2995 RMK AO2 PWINO PNO
KBWD 201055Z AUTO 00000KT 10SM CLR 21/21 A2994 RMK AO2 PWINO PNO
KBWD 201035Z AUTO 14004KT 10SM CLR 21/21 A2994 RMK AO2 PWINO PNO
KBWD 201015Z AUTO 15003KT 10SM CLR 21/21 A2995 RMK AO2 PWINO PNO
KBWD 200955Z AUTO 00000KT 10SM FEW036 FEW042 22/21 A2995 RMK AO2 PWINO PNO
KBWD 200935Z AUTO 15003KT 10SM FEW036 SCT042 BKN049 22/21 A2995 RMK AO2 PWINO PNO
KBWD 200915Z AUTO 15003KT 10SM FEW038 SCT047 SCT055 22/21 A2996 RMK AO2 PWINO PNO
KBWD 200855Z AUTO 15004KT 10SM FEW040 SCT047 22/21 A2996 RMK AO2 PWINO PNO
KBWD 200835Z AUTO 14005KT 10SM BKN040 22/21 A2996 RMK AO2 PWINO PNO
KBWD 200815Z AUTO 15004KT 10SM OVC040 22/20 A2996 RMK AO2 PWINO PNO
KBWD 200755Z AUTO 00000KT 10SM OVC042 22/20 A2996 RMK AO2 PWINO PNO
KBWD 200735Z AUTO 00000KT 10SM BKN042 22/20 A2997 RMK AO2 PWINO PNO
KBWD 200715Z AUTO 18003KT 10SM FEW038 SCT044 22/20 A2997 RMK AO2 PWINO PNO
KBWD 200655Z AUTO 14003KT 10SM SCT040 22/20 A2996 RMK AO2 PWINO PNO
KBWD 200635Z AUTO 14004KT 10SM FEW037 SCT045 22/20 A2996 RMK AO2 PWINO PNO
KBWD 200615Z AUTO 13005KT 10SM FEW041 FEW048 22/20 A2997 RMK AO2 PWINO PNO